Time,TemperatureF,DewpointF,PressureIn,WindDirection,WindDirectionDegrees,WindSpeedMPH,WindSpeedGustMPH,Humidity,HourlyPrecipIn,Conditions,Clouds,dailyrainin,SoftwareType,DateUTC
2013-04-15 00:00:00,64.7,63.8,29.85,ESE,123,0.0,0.0,97,0.00,,,0.00,Wunderground v.1.15,2013-04-15 06:00:00,
2013-04-15 00:10:00,64.8,63.9,29.85,ESE,123,0.0,0.0,97,0.00,,,0.00,Wunderground v.1.15,2013-04-15 06:10:00,
2013-04-15 00:15:00,64.8,63.9,29.85,ESE,123,0.0,0.0,97,0.00,,,0.00,Wunderground v.1.15,2013-04-15 06:15:00,
2013-04-15 00:25:00,65.0,64.1,29.85,ESE,123,0.0,0.0,97,0.00,,,0.00,Wunderground v.1.15,2013-04-15 06:25:00,
2013-04-15 00:30:00,65.2,64.3,29.86,ESE,123,0.0,0.0,97,0.00,,,0.00,Wunderground v.1.15,2013-04-15 06:30:00,
2013-04-15 00:40:00,65.2,64.3,29.86,ESE,123,0.0,0.0,97,0.00,,,0.00,Wunderground v.1.15,2013-04-15 06:40:00,
2013-04-15 00:45:00,65.2,64.3,29.86,ESE,123,0.0,0.0,97,0.00,,,0.00,Wunderground v.1.15,2013-04-15 06:45:00,
2013-04-15 00:55:00,65.0,64.1,29.86,ESE,123,0.0,0.0,97,0.00,,,0.00,Wunderground v.1.15,2013-04-15 06:55:00,
2013-04-15 01:00:00,65.2,64.3,29.86,ESE,123,0.0,0.0,97,0.00,,,0.00,Wunderground v.1.15,2013-04-15 07:00:00,
2013-04-15 01:45:00,64.8,63.9,29.86,ESE,112,0.0,0.0,97,0.00,,,0.00,Wunderground v.1.15,2013-04-15 07:45:00,
2013-04-15 01:50:00,64.8,63.9,29.86,ESE,112,0.0,0.0,97,0.00,,,0.00,Wunderground v.1.15,2013-04-15 07:50:00,
2013-04-15 01:55:00,64.8,63.9,29.86,ESE,112,0.0,0.0,97,0.00,,,0.00,Wunderground v.1.15,2013-04-15 07:55:00,
2013-04-15 02:00:00,64.7,63.8,29.86,ESE,112,0.0,0.0,97,0.00,,,0.00,Wunderground v.1.15,2013-04-15 08:00:00,
2013-04-15 02:10:00,64.3,63.4,29.86,ESE,112,0.0,0.0,97,0.00,,,0.00,Wunderground v.1.15,2013-04-15 08:10:00,
2013-04-15 02:15:00,64.3,63.4,29.86,ESE,112,0.0,0.0,97,0.00,,,0.00,Wunderground v.1.15,2013-04-15 08:15:00,
2013-04-15 02:25:00,64.2,63.3,29.86,ESE,112,0.0,0.0,97,0.00,,,0.00,Wunderground v.1.15,2013-04-15 08:25:00,
2013-04-15 02:30:00,64.2,63.3,29.87,ESE,112,0.0,0.0,97,0.00,,,0.00,Wunderground v.1.15,2013-04-15 08:30:00,
2013-04-15 02:40:00,64.2,63.3,29.87,ESE,112,0.0,0.0,97,0.00,,,0.00,Wunderground v.1.15,2013-04-15 08:40:00,
2013-04-15 02:45:00,64.2,63.3,29.87,ESE,112,0.0,0.0,97,0.00,,,0.00,Wunderground v.1.15,2013-04-15 08:45:00,
2013-04-15 02:55:00,64.2,63.3,29.87,ESE,112,0.0,0.0,97,0.00,,,0.00,Wunderground v.1.15,2013-04-15 08:55:00,
2013-04-15 03:00:00,64.3,63.4,29.87,ESE,112,0.0,0.0,97,0.00,,,0.00,Wunderground v.1.15,2013-04-15 09:00:00,
2013-04-15 03:10:00,64.3,63.7,29.87,ESE,112,0.0,0.0,98,0.00,,,0.00,Wunderground v.1.15,2013-04-15 09:10:00,
2013-04-15 03:15:00,64.3,63.7,29.87,ESE,112,0.0,0.0,98,0.00,,,0.00,Wunderground v.1.15,2013-04-15 09:15:00,
2013-04-15 03:25:00,64.3,63.7,29.87,ESE,112,0.0,0.0,98,0.00,,,0.00,Wunderground v.1.15,2013-04-15 09:25:00,
2013-04-15 03:30:00,64.3,63.7,29.88,ESE,112,0.0,0.0,98,0.00,,,0.00,Wunderground v.1.15,2013-04-15 09:30:00,
2013-04-15 03:40:00,64.3,63.7,29.88,ESE,112,0.0,0.0,98,0.00,,,0.00,Wunderground v.1.15,2013-04-15 09:40:00,
2013-04-15 03:45:00,64.3,63.7,29.88,ESE,112,0.0,0.0,98,0.00,,,0.00,Wunderground v.1.15,2013-04-15 09:45:00,
2013-04-15 03:55:00,64.3,63.7,29.88,ESE,112,0.0,0.0,98,0.00,,,0.00,Wunderground v.1.15,2013-04-15 09:55:00,
2013-04-15 04:00:00,64.3,63.7,29.89,ESE,112,0.0,0.0,98,0.00,,,0.00,Wunderground v.1.15,2013-04-15 10:00:00,
2013-04-15 04:10:00,64.3,63.7,29.89,ESE,112,0.0,0.0,98,0.00,,,0.00,Wunderground v.1.15,2013-04-15 10:10:00,
2013-04-15 04:15:00,64.3,63.7,29.89,ESE,112,0.0,0.0,98,0.00,,,0.00,Wunderground v.1.15,2013-04-15 10:15:00,
2013-04-15 04:25:00,64.5,63.9,29.89,ESE,112,0.0,0.0,98,0.00,,,0.00,Wunderground v.1.15,2013-04-15 10:25:00,
2013-04-15 04:30:00,64.5,63.9,29.90,ESE,112,0.0,0.0,98,0.00,,,0.00,Wunderground v.1.15,2013-04-15 10:30:00,
2013-04-15 04:40:00,64.5,63.9,29.90,ESE,112,0.0,0.0,98,0.00,,,0.00,Wunderground v.1.15,2013-04-15 10:40:00,
2013-04-15 04:45:00,64.5,63.9,29.90,ESE,112,0.0,0.0,98,0.00,,,0.00,Wunderground v.1.15,2013-04-15 10:45:00,
2013-04-15 04:55:00,64.5,63.9,29.90,ESE,112,0.0,0.0,98,0.00,,,0.00,Wunderground v.1.15,2013-04-15 10:55:00,
2013-04-15 05:00:00,64.5,63.9,29.91,ESE,112,0.0,0.0,98,0.00,,,0.00,Wunderground v.1.15,2013-04-15 11:00:00,
2013-04-15 05:10:00,64.5,63.9,29.91,ESE,112,0.0,0.0,98,0.00,,,0.00,Wunderground v.1.15,2013-04-15 11:10:00,
2013-04-15 05:15:00,64.5,63.9,29.91,ESE,112,0.0,0.0,98,0.00,,,0.00,Wunderground v.1.15,2013-04-15 11:15:00,
2013-04-15 05:25:00,64.7,64.1,29.91,ESE,112,0.0,0.0,98,0.00,,,0.00,Wunderground v.1.15,2013-04-15 11:25:00,
2013-04-15 05:30:00,64.7,64.1,29.92,ESE,112,0.0,0.0,98,0.00,,,0.00,Wunderground v.1.15,2013-04-15 11:30:00,
2013-04-15 05:40:00,64.8,64.2,29.92,ESE,112,0.0,0.0,98,0.00,,,0.00,Wunderground v.1.15,2013-04-15 11:40:00,
2013-04-15 05:45:00,64.8,64.2,29.93,ESE,112,0.0,0.0,98,0.00,,,0.00,Wunderground v.1.15,2013-04-15 11:45:00,
2013-04-15 05:55:00,65.0,64.4,29.93,ESE,112,0.0,0.0,98,0.00,,,0.00,Wunderground v.1.15,2013-04-15 11:55:00,
2013-04-15 06:00:00,65.0,64.4,29.93,ESE,112,0.0,0.0,98,0.00,,,0.00,Wunderground v.1.15,2013-04-15 12:00:00,
2013-04-15 06:10:00,65.2,64.6,29.93,ESE,112,0.0,0.0,98,0.00,,,0.00,Wunderground v.1.15,2013-04-15 12:10:00,
2013-04-15 06:15:00,65.2,64.6,29.94,ESE,112,0.0,0.0,98,0.00,,,0.00,Wunderground v.1.15,2013-04-15 12:15:00,
2013-04-15 06:25:00,65.5,64.9,29.94,ESE,112,0.0,0.0,98,0.00,,,0.00,Wunderground v.1.15,2013-04-15 12:25:00,
2013-04-15 06:30:00,65.6,65.0,29.94,ESE,112,0.0,0.0,98,0.00,,,0.00,Wunderground v.1.15,2013-04-15 12:30:00,
2013-04-15 06:40:00,65.8,65.2,29.94,ESE,112,0.0,0.0,98,0.00,,,0.00,Wunderground v.1.15,2013-04-15 12:40:00,
2013-04-15 06:45:00,66.1,65.5,29.95,ESE,112,0.0,0.0,98,0.00,,,0.00,Wunderground v.1.15,2013-04-15 12:45:00,
2013-04-15 06:55:00,66.4,65.8,29.95,ESE,112,0.0,0.0,98,0.00,,,0.00,Wunderground v.1.15,2013-04-15 12:55:00,
2013-04-15 07:00:00,66.6,66.0,29.96,ESE,109,0.0,0.0,98,0.00,,,0.00,Wunderground v.1.15,2013-04-15 13:00:00,
2013-04-15 07:10:00,66.8,66.2,29.96,ESE,109,0.0,0.0,98,0.00,,,0.00,Wunderground v.1.15,2013-04-15 13:10:00,
2013-04-15 07:15:00,66.8,66.2,29.96,ESE,109,0.0,0.0,98,0.00,,,0.00,Wunderground v.1.15,2013-04-15 13:15:00,
2013-04-15 07:25:00,67.1,66.5,29.96,ESE,109,0.0,0.0,98,0.00,,,0.00,Wunderground v.1.15,2013-04-15 13:25:00,
2013-04-15 07:30:00,67.3,66.7,29.96,ESE,109,0.0,0.0,98,0.00,,,0.00,Wunderground v.1.15,2013-04-15 13:30:00,
2013-04-15 07:40:00,67.6,67.0,29.96,ESE,120,0.0,0.0,98,0.00,,,0.00,Wunderground v.1.15,2013-04-15 13:40:00,
2013-04-15 07:45:00,67.8,67.2,29.97,ESE,103,0.0,0.0,98,0.00,,,0.00,Wunderground v.1.15,2013-04-15 13:45:00,
2013-04-15 07:55:00,67.9,67.3,29.97,ESE,107,0.0,0.0,98,0.00,,,0.00,Wunderground v.1.15,2013-04-15 13:55:00,
2013-04-15 08:00:00,68.3,67.7,29.96,East,96,0.0,0.0,98,0.00,,,0.00,Wunderground v.1.15,2013-04-15 14:00:00,
2013-04-15 08:10:00,68.4,67.8,29.96,ESE,106,0.0,0.0,98,0.00,,,0.00,Wunderground v.1.15,2013-04-15 14:10:00,
2013-04-15 08:15:00,68.6,68.0,29.97,ESE,113,0.0,0.0,98,0.00,,,0.00,Wunderground v.1.15,2013-04-15 14:15:00,
2013-04-15 08:25:00,68.8,68.2,29.97,East,99,0.0,0.0,98,0.00,,,0.00,Wunderground v.1.15,2013-04-15 14:25:00,
2013-04-15 08:30:00,68.8,68.2,29.97,East,96,0.0,0.0,98,0.00,,,0.00,Wunderground v.1.15,2013-04-15 14:30:00,
2013-04-15 08:40:00,68.9,68.0,29.97,ESE,120,0.0,0.0,97,0.00,,,0.00,Wunderground v.1.15,2013-04-15 14:40:00,
2013-04-15 08:45:00,68.9,68.0,29.97,SE,126,0.0,0.0,97,0.00,,,0.00,Wunderground v.1.15,2013-04-15 14:45:00,
2013-04-15 08:55:00,69.1,68.2,29.97,East,99,0.0,0.0,97,0.00,,,0.00,Wunderground v.1.15,2013-04-15 14:55:00,
2013-04-15 09:00:00,69.3,68.4,29.97,East,99,0.0,0.0,97,0.00,,,0.00,Wunderground v.1.15,2013-04-15 15:00:00,
2013-04-15 09:10:00,69.4,68.5,29.97,SE,130,0.0,0.0,97,0.00,,,0.00,Wunderground v.1.15,2013-04-15 15:10:00,
2013-04-15 09:15:00,69.4,68.5,29.98,East,93,0.0,0.0,97,0.00,,,0.00,Wunderground v.1.15,2013-04-15 15:15:00,
2013-04-15 09:25:00,69.6,68.7,29.98,ESE,110,0.0,0.0,97,0.00,,,0.00,Wunderground v.1.15,2013-04-15 15:25:00,
2013-04-15 09:35:00,69.6,68.7,29.99,SE,137,0.0,0.0,97,0.00,,,0.00,Wunderground v.1.15,2013-04-15 15:35:00,
2013-04-15 09:45:00,69.6,68.4,29.99,ESE,116,0.0,0.0,96,0.00,,,0.00,Wunderground v.1.15,2013-04-15 15:45:00,
2013-04-15 09:55:00,69.9,69.0,29.99,SE,128,0.0,0.0,97,0.00,,,0.00,Wunderground v.1.15,2013-04-15 15:55:00,
2013-04-15 10:00:00,69.9,68.7,29.99,ESE,113,0.0,0.0,96,0.00,,,0.00,Wunderground v.1.15,2013-04-15 16:00:00,
2013-04-15 10:10:00,70.1,68.9,29.99,ESE,106,0.0,0.0,96,0.00,,,0.00,Wunderground v.1.15,2013-04-15 16:10:00,
2013-04-15 10:15:00,70.1,68.9,29.99,ESE,119,0.0,0.0,96,0.00,,,0.00,Wunderground v.1.15,2013-04-15 16:15:00,
2013-04-15 10:25:00,70.3,69.1,29.99,East,99,0.0,0.0,96,0.00,,,0.00,Wunderground v.1.15,2013-04-15 16:25:00,
2013-04-15 10:30:00,70.3,69.1,30.00,East,96,0.0,0.0,96,0.00,,,0.00,Wunderground v.1.15,2013-04-15 16:30:00,
2013-04-15 10:40:00,70.3,69.1,30.00,East,96,0.0,0.0,96,0.00,,,0.00,Wunderground v.1.15,2013-04-15 16:40:00,
2013-04-15 10:45:00,70.3,69.1,30.00,ESE,114,0.0,0.0,96,0.00,,,0.00,Wunderground v.1.15,2013-04-15 16:45:00,
2013-04-15 10:55:00,70.6,69.4,30.00,ESE,110,0.0,0.0,96,0.00,,,0.00,Wunderground v.1.15,2013-04-15 16:55:00,
2013-04-15 11:00:00,70.8,69.6,29.99,ESE,113,0.0,0.0,96,0.00,,,0.00,Wunderground v.1.15,2013-04-15 17:00:00,
2013-04-15 11:10:00,70.8,69.6,29.99,SSE,150,0.0,0.0,96,0.00,,,0.00,Wunderground v.1.15,2013-04-15 17:10:00,
2013-04-15 11:15:00,70.8,69.6,29.99,ESE,117,0.0,0.0,96,0.00,,,0.00,Wunderground v.1.15,2013-04-15 17:15:00,
2013-04-15 11:25:00,70.8,69.6,29.99,East,99,0.0,0.0,96,0.00,,,0.00,Wunderground v.1.15,2013-04-15 17:25:00,
2013-04-15 11:30:00,70.9,69.7,29.99,East,99,0.0,0.0,96,0.00,,,0.00,Wunderground v.1.15,2013-04-15 17:30:00,
2013-04-15 11:40:00,71.1,69.9,29.99,SE,126,0.0,0.0,96,0.00,,,0.00,Wunderground v.1.15,2013-04-15 17:40:00,
2013-04-15 11:45:00,71.3,70.1,29.99,ESE,109,0.0,0.0,96,0.00,,,0.00,Wunderground v.1.15,2013-04-15 17:45:00,
2013-04-15 11:55:00,71.5,70.3,29.99,SE,136,0.0,0.0,96,0.00,,,0.00,Wunderground v.1.15,2013-04-15 17:55:00,
2013-04-15 12:00:00,71.5,70.3,29.99,SSE,154,0.0,0.0,96,0.00,,,0.00,Wunderground v.1.15,2013-04-15 18:00:00,
2013-04-15 12:10:00,71.6,70.4,29.99,ESE,119,0.0,0.0,96,0.00,,,0.00,Wunderground v.1.15,2013-04-15 18:10:00,
2013-04-15 12:15:00,71.8,70.6,30.00,East,93,0.0,0.0,96,0.00,,,0.00,Wunderground v.1.15,2013-04-15 18:15:00,
2013-04-15 12:25:00,72.0,70.5,30.00,SSE,150,0.0,0.0,95,0.00,,,0.00,Wunderground v.1.15,2013-04-15 18:25:00,
2013-04-15 12:30:00,72.5,71.3,29.99,East,88,0.0,0.0,96,0.00,,,0.00,Wunderground v.1.15,2013-04-15 18:30:00,
2013-04-15 12:40:00,73.5,71.7,29.99,ESE,103,0.0,0.0,94,0.00,,,0.00,Wunderground v.1.15,2013-04-15 18:40:00,
2013-04-15 12:45:00,74.0,71.5,29.99,ESE,103,0.0,0.0,92,0.00,,,0.00,Wunderground v.1.15,2013-04-15 18:45:00,
2013-04-15 12:50:00,74.6,71.8,29.99,East,88,0.0,0.0,91,0.00,,,0.00,Wunderground v.1.15,2013-04-15 18:50:00,
2013-04-15 12:55:00,74.6,71.1,29.99,ESE,109,0.0,0.0,89,0.00,,,0.00,Wunderground v.1.15,2013-04-15 18:55:00,
2013-04-15 13:00:00,75.3,71.5,29.98,SE,128,0.0,0.0,88,0.00,,,0.00,Wunderground v.1.15,2013-04-15 19:00:00,
2013-04-15 13:10:00,75.8,71.3,29.98,ESE,112,0.0,0.0,86,0.00,,,0.00,Wunderground v.1.15,2013-04-15 19:10:00,
2013-04-15 13:15:00,76.5,71.3,29.98,SE,137,0.0,0.0,84,0.00,,,0.00,Wunderground v.1.15,2013-04-15 19:15:00,
2013-04-15 13:20:00,76.5,70.9,29.98,East,92,0.0,0.0,83,0.00,,,0.00,Wunderground v.1.15,2013-04-15 19:20:00,
2013-04-15 13:30:00,77.2,70.9,29.98,ESE,113,0.0,0.0,81,0.00,,,0.00,Wunderground v.1.15,2013-04-15 19:30:00,
2013-04-15 13:40:00,77.7,71.0,29.98,East,99,0.0,0.0,80,0.00,,,0.00,Wunderground v.1.15,2013-04-15 19:40:00,
2013-04-15 13:45:00,77.9,70.5,29.97,ESE,120,0.0,0.0,78,0.00,,,0.00,Wunderground v.1.15,2013-04-15 19:45:00,
2013-04-15 14:00:00,77.9,70.1,29.97,WSW,241,0.0,0.0,77,0.00,,,0.00,Wunderground v.1.15,2013-04-15 20:00:00,
2013-04-15 14:05:00,78.1,70.3,29.97,SE,126,0.0,0.0,77,0.00,,,0.00,Wunderground v.1.15,2013-04-15 20:05:00,
2013-04-15 14:10:00,78.3,69.7,29.97,SW,215,0.0,0.0,75,0.00,,,0.00,Wunderground v.1.15,2013-04-15 20:10:00,
2013-04-15 14:15:00,78.6,70.0,29.97,SSE,168,0.0,0.0,75,0.00,,,0.00,Wunderground v.1.15,2013-04-15 20:15:00,
2013-04-15 14:20:00,78.8,70.6,29.97,SE,131,0.0,0.0,76,0.00,,,0.00,Wunderground v.1.15,2013-04-15 20:20:00,
2013-04-15 14:25:00,78.3,70.1,29.97,SE,143,0.0,0.0,76,0.00,,,0.00,Wunderground v.1.15,2013-04-15 20:25:00,
2013-04-15 14:30:00,77.9,70.1,29.97,East,90,0.0,0.0,77,0.00,,,0.00,Wunderground v.1.15,2013-04-15 20:30:00,
2013-04-15 14:35:00,77.7,69.5,29.97,SW,226,0.0,0.0,76,0.00,,,0.00,Wunderground v.1.15,2013-04-15 20:35:00,
2013-04-15 14:40:00,77.7,69.9,29.97,SSE,148,0.0,0.0,77,0.00,,,0.00,Wunderground v.1.15,2013-04-15 20:40:00,
2013-04-15 14:45:00,77.6,69.8,29.96,ESE,109,0.0,0.0,77,0.00,,,0.00,Wunderground v.1.15,2013-04-15 20:45:00,
2013-04-15 14:55:00,77.6,70.2,29.96,ESE,110,0.0,0.0,78,0.00,,,0.00,Wunderground v.1.15,2013-04-15 20:55:00,
2013-04-15 15:00:00,77.2,69.8,29.96,ESE,117,0.0,0.0,78,0.00,,,0.00,Wunderground v.1.15,2013-04-15 21:00:00,
2013-04-15 15:10:00,76.8,69.8,29.96,East,95,0.0,0.0,79,0.00,,,0.00,Wunderground v.1.15,2013-04-15 21:10:00,
2013-04-15 15:15:00,76.7,69.7,29.97,ESE,121,0.0,0.0,79,0.00,,,0.00,Wunderground v.1.15,2013-04-15 21:15:00,
2013-04-15 15:25:00,76.7,69.3,29.97,ESE,107,0.0,0.0,78,0.00,,,0.00,Wunderground v.1.15,2013-04-15 21:25:00,
2013-04-15 15:30:00,76.5,69.1,29.97,South,175,0.0,0.0,78,0.00,,,0.00,Wunderground v.1.15,2013-04-15 21:30:00,
2013-04-15 15:40:00,76.3,68.9,29.97,SE,130,0.0,0.0,78,0.00,,,0.00,Wunderground v.1.15,2013-04-15 21:40:00,
2013-04-15 15:45:00,76.3,69.3,29.97,SE,136,0.0,0.0,79,0.00,,,0.00,Wunderground v.1.15,2013-04-15 21:45:00,
2013-04-15 15:55:00,76.0,69.0,29.97,SSW,200,0.0,0.0,79,0.00,,,0.00,Wunderground v.1.15,2013-04-15 21:55:00,
2013-04-15 16:00:00,76.0,69.0,29.97,SE,131,0.0,0.0,79,0.00,,,0.00,Wunderground v.1.15,2013-04-15 22:00:00,
2013-04-15 16:15:00,75.6,68.6,29.97,ESE,117,0.0,0.0,79,0.00,,,0.00,Wunderground v.1.15,2013-04-15 22:15:00,
2013-04-15 16:25:00,75.4,68.8,29.97,SSE,155,0.0,0.0,80,0.00,,,0.00,Wunderground v.1.15,2013-04-15 22:25:00,
2013-04-15 16:30:00,75.4,68.8,29.97,SE,127,0.0,0.0,80,0.00,,,0.00,Wunderground v.1.15,2013-04-15 22:30:00,
2013-04-15 16:40:00,75.1,68.5,29.97,SE,131,0.0,0.0,80,0.00,,,0.00,Wunderground v.1.15,2013-04-15 22:40:00,
2013-04-15 16:45:00,74.7,68.1,29.97,SW,224,0.0,0.0,80,0.00,,,0.00,Wunderground v.1.15,2013-04-15 22:45:00,
2013-04-15 16:55:00,74.6,68.4,29.97,SSE,162,0.0,0.0,81,0.00,,,0.00,Wunderground v.1.15,2013-04-15 22:55:00,
2013-04-15 17:00:00,74.4,68.5,29.97,SE,134,0.0,0.0,82,0.00,,,0.00,Wunderground v.1.15,2013-04-15 23:00:00,
2013-04-15 17:10:00,74.2,68.3,29.97,East,86,0.0,0.0,82,0.00,,,0.00,Wunderground v.1.15,2013-04-15 23:10:00,
2013-04-15 17:15:00,74.0,68.2,29.97,South,189,0.0,0.0,82,0.00,,,0.00,Wunderground v.1.15,2013-04-15 23:15:00,
2013-04-15 17:25:00,73.7,67.9,29.97,SSE,165,0.0,0.0,82,0.00,,,0.00,Wunderground v.1.15,2013-04-15 23:25:00,
2013-04-15 17:30:00,73.3,67.5,29.98,ESE,116,0.0,0.0,82,0.00,,,0.00,Wunderground v.1.15,2013-04-15 23:30:00,
2013-04-15 17:40:00,73.0,67.5,29.98,SE,130,0.0,0.0,83,0.00,,,0.00,Wunderground v.1.15,2013-04-15 23:40:00,
2013-04-15 17:45:00,73.0,67.9,29.98,East,92,0.0,0.0,84,0.00,,,0.00,Wunderground v.1.15,2013-04-15 23:45:00,
2013-04-15 17:55:00,72.7,67.9,29.98,SE,133,0.0,0.0,85,0.00,,,0.00,Wunderground v.1.15,2013-04-15 23:55:00,
2013-04-15 18:00:00,72.7,67.9,29.99,East,95,0.0,0.0,85,0.00,,,0.00,Wunderground v.1.15,2013-04-16 00:00:00,
2013-04-15 18:10:00,72.3,67.9,29.99,SE,138,0.0,0.0,86,0.00,,,0.00,Wunderground v.1.15,2013-04-16 00:10:00,
2013-04-15 18:15:00,72.3,68.2,29.99,SSE,164,0.0,0.0,87,0.00,,,0.00,Wunderground v.1.15,2013-04-16 00:15:00,
2013-04-15 18:25:00,72.0,67.9,29.99,NE,56,0.0,1.0,87,0.00,,,0.00,Wunderground v.1.15,2013-04-16 00:25:00,
2013-04-15 18:30:00,72.0,68.2,29.99,SE,126,0.0,0.0,88,0.00,,,0.00,Wunderground v.1.15,2013-04-16 00:30:00,
2013-04-15 18:40:00,71.8,68.1,29.99,SE,133,0.0,0.0,88,0.00,,,0.00,Wunderground v.1.15,2013-04-16 00:40:00,
2013-04-15 18:45:00,71.6,67.9,29.99,SSE,160,0.0,1.0,88,0.00,,,0.00,Wunderground v.1.15,2013-04-16 00:45:00,
2013-04-15 18:55:00,71.6,68.2,29.99,SE,124,0.0,0.0,89,0.00,,,0.00,Wunderground v.1.15,2013-04-16 00:55:00,
2013-04-15 19:00:00,71.5,68.1,30.00,West,261,0.0,0.0,89,0.00,,,0.00,Wunderground v.1.15,2013-04-16 01:00:00,
2013-04-15 19:10:00,71.5,68.1,30.00,ESE,114,0.0,0.0,89,0.00,,,0.00,Wunderground v.1.15,2013-04-16 01:10:00,
2013-04-15 19:15:00,71.3,67.9,30.00,East,100,0.0,0.0,89,0.00,,,0.00,Wunderground v.1.15,2013-04-16 01:15:00,
2013-04-15 19:25:00,71.3,67.9,30.00,SSE,147,0.0,0.0,89,0.00,,,0.00,Wunderground v.1.15,2013-04-16 01:25:00,
2013-04-15 19:30:00,71.3,67.9,30.01,SE,144,0.0,0.0,89,0.00,,,0.00,Wunderground v.1.15,2013-04-16 01:30:00,
2013-04-15 19:40:00,71.3,67.9,30.01,ESE,104,0.0,0.0,89,0.00,,,0.00,Wunderground v.1.15,2013-04-16 01:40:00,
2013-04-15 19:45:00,71.1,67.7,30.02,SSE,148,0.0,0.0,89,0.00,,,0.00,Wunderground v.1.15,2013-04-16 01:45:00,
2013-04-15 19:55:00,71.1,67.7,30.02,SE,127,0.0,0.0,89,0.00,,,0.00,Wunderground v.1.15,2013-04-16 01:55:00,
2013-04-15 20:00:00,71.1,67.7,30.02,SSE,148,0.0,0.0,89,0.00,,,0.00,Wunderground v.1.15,2013-04-16 02:00:00,
2013-04-15 20:10:00,71.1,67.7,30.02,SE,134,0.0,0.0,89,0.00,,,0.00,Wunderground v.1.15,2013-04-16 02:10:00,
2013-04-15 20:15:00,71.1,67.7,30.03,ESE,117,0.0,0.0,89,0.00,,,0.00,Wunderground v.1.15,2013-04-16 02:15:00,
2013-04-15 20:25:00,71.1,67.7,30.03,ESE,109,0.0,0.0,89,0.00,,,0.00,Wunderground v.1.15,2013-04-16 02:25:00,
2013-04-15 20:30:00,71.1,67.7,30.03,East,100,0.0,0.0,89,0.00,,,0.00,Wunderground v.1.15,2013-04-16 02:30:00,
2013-04-15 20:40:00,71.1,67.4,30.03,ESE,114,0.0,0.0,88,0.00,,,0.00,Wunderground v.1.15,2013-04-16 02:40:00,
2013-04-15 20:45:00,71.1,67.4,30.03,SE,138,0.0,0.0,88,0.00,,,0.00,Wunderground v.1.15,2013-04-16 02:45:00,
2013-04-15 20:55:00,71.3,67.2,30.03,SSE,148,0.0,0.0,87,0.00,,,0.00,Wunderground v.1.15,2013-04-16 02:55:00,
2013-04-15 21:00:00,71.5,67.4,30.04,ESE,117,0.0,0.0,87,0.00,,,0.00,Wunderground v.1.15,2013-04-16 03:00:00,
2013-04-15 21:10:00,71.5,67.4,30.04,ESE,120,0.0,0.0,87,0.00,,,0.00,Wunderground v.1.15,2013-04-16 03:10:00,
2013-04-15 21:15:00,71.5,67.4,30.04,ESE,107,0.0,0.0,87,0.00,,,0.00,Wunderground v.1.15,2013-04-16 03:15:00,
2013-04-15 21:25:00,71.5,67.4,30.04,SE,130,0.0,0.0,87,0.00,,,0.00,Wunderground v.1.15,2013-04-16 03:25:00,
2013-04-15 21:30:00,71.5,67.8,30.05,ESE,121,0.0,0.0,88,0.00,,,0.00,Wunderground v.1.15,2013-04-16 03:30:00,
2013-04-15 21:40:00,71.3,67.6,30.05,SE,128,0.0,0.0,88,0.00,,,0.00,Wunderground v.1.15,2013-04-16 03:40:00,
2013-04-15 21:45:00,71.3,67.6,30.05,ESE,117,0.0,0.0,88,0.00,,,0.00,Wunderground v.1.15,2013-04-16 03:45:00,
2013-04-15 21:55:00,71.3,67.9,30.05,ESE,120,0.0,0.0,89,0.00,,,0.00,Wunderground v.1.15,2013-04-16 03:55:00,
2013-04-15 22:00:00,71.3,67.9,30.05,SE,137,0.0,0.0,89,0.00,,,0.00,Wunderground v.1.15,2013-04-16 04:00:00,
2013-04-15 22:05:00,71.3,67.9,30.05,East,92,0.0,0.0,89,0.00,,,0.00,Wunderground v.1.15,2013-04-16 04:05:00,
2013-04-15 22:10:00,71.1,67.7,30.05,ENE,71,0.0,0.0,89,0.00,,,0.00,Wunderground v.1.15,2013-04-16 04:10:00,
2013-04-15 22:15:00,71.1,67.7,30.05,SSE,150,0.0,0.0,89,0.00,,,0.00,Wunderground v.1.15,2013-04-16 04:15:00,
2013-04-15 22:20:00,71.1,67.7,30.05,SE,134,0.0,0.0,89,0.00,,,0.00,Wunderground v.1.15,2013-04-16 04:20:00,
2013-04-15 22:25:00,71.1,68.0,30.05,SE,138,0.0,0.0,90,0.00,,,0.00,Wunderground v.1.15,2013-04-16 04:25:00,
2013-04-15 22:30:00,71.1,68.0,30.05,SSE,152,0.0,0.0,90,0.00,,,0.00,Wunderground v.1.15,2013-04-16 04:30:00,
2013-04-15 22:40:00,71.1,68.0,30.05,SE,134,0.0,0.0,90,0.00,,,0.00,Wunderground v.1.15,2013-04-16 04:40:00,
2013-04-15 22:45:00,71.1,68.0,30.05,SE,136,0.0,0.0,90,0.00,,,0.00,Wunderground v.1.15,2013-04-16 04:45:00,
2013-04-15 22:55:00,70.9,68.1,30.05,East,95,0.0,0.0,91,0.00,,,0.00,Wunderground v.1.15,2013-04-16 04:55:00,
2013-04-15 23:00:00,70.9,68.1,30.05,East,97,0.0,0.0,91,0.00,,,0.00,Wunderground v.1.15,2013-04-16 05:00:00,
2013-04-15 23:10:00,70.9,68.1,30.05,SE,133,0.0,0.0,91,0.00,,,0.00,Wunderground v.1.15,2013-04-16 05:10:00,
2013-04-15 23:15:00,70.8,68.0,30.05,SE,128,0.0,0.0,91,0.00,,,0.00,Wunderground v.1.15,2013-04-16 05:15:00,
2013-04-15 23:25:00,70.8,68.4,30.05,East,88,0.0,0.0,92,0.00,,,0.00,Wunderground v.1.15,2013-04-16 05:25:00,
2013-04-15 23:30:00,70.6,68.2,30.05,SE,128,0.0,0.0,92,0.00,,,0.00,Wunderground v.1.15,2013-04-16 05:30:00,
2013-04-15 23:40:00,70.6,68.2,30.05,East,86,0.0,0.0,92,0.00,,,0.00,Wunderground v.1.15,2013-04-16 05:40:00,
2013-04-15 23:45:00,70.6,68.2,30.05,East,86,0.0,0.0,92,0.00,,,0.00,Wunderground v.1.15,2013-04-16 05:45:00,
2013-04-15 23:55:00,70.6,68.2,30.05,SSE,148,0.0,0.0,92,0.00,,,0.00,Wunderground v.1.15,2013-04-16 05:55:00,